sensor_id;sensor_type;location;lat;lon;timestamp;P1;durP1;ratioP1;P2;durP2;ratioP2
66523;SDS011;53350;52.210;5.160;2023-11-21T00:00:22;38.85;;;12.38;;
66523;SDS011;53350;52.210;5.160;2023-11-21T00:02:49;41.53;;;12.20;;
66523;SDS011;53350;52.210;5.160;2023-11-21T00:05:15;73.38;;;13.07;;
66523;SDS011;53350;52.210;5.160;2023-11-21T00:07:43;37.85;;;11.95;;
66523;SDS011;53350;52.210;5.160;2023-11-21T00:10:10;58.35;;;10.98;;
66523;SDS011;53350;52.210;5.160;2023-11-21T00:12:39;55.17;;;11.55;;
66523;SDS011;53350;52.210;5.160;2023-11-21T00:15:07;56.38;;;11.60;;
66523;SDS011;53350;52.210;5.160;2023-11-21T00:17:35;69.65;;;10.73;;
66523;SDS011;53350;52.210;5.160;2023-11-21T00:20:02;76.32;;;11.38;;
66523;SDS011;53350;52.210;5.160;2023-11-21T00:22:31;41.58;;;10.25;;
66523;SDS011;53350;52.210;5.160;2023-11-21T00:24:59;47.47;;;9.95;;
66523;SDS011;53350;52.210;5.160;2023-11-21T00:27:26;62.80;;;9.45;;
66523;SDS011;53350;52.210;5.160;2023-11-21T00:29:52;36.20;;;9.35;;
66523;SDS011;53350;52.210;5.160;2023-11-21T00:32:18;45.25;;;9.57;;
66523;SDS011;53350;52.210;5.160;2023-11-21T00:34:45;36.40;;;9.48;;
66523;SDS011;53350;52.210;5.160;2023-11-21T00:37:11;28.08;;;8.75;;
66523;SDS011;53350;52.210;5.160;2023-11-21T00:39:38;24.58;;;9.27;;
66523;SDS011;53350;52.210;5.160;2023-11-21T00:42:06;21.55;;;8.45;;
66523;SDS011;53350;52.210;5.160;2023-11-21T00:46:59;15.80;;;7.97;;
66523;SDS011;53350;52.210;5.160;2023-11-21T00:49:26;23.70;;;8.52;;
66523;SDS011;53350;52.210;5.160;2023-11-21T00:51:53;17.58;;;7.40;;
66523;SDS011;53350;52.210;5.160;2023-11-21T00:54:19;32.78;;;8.02;;
66523;SDS011;53350;52.210;5.160;2023-11-21T00:56:46;33.42;;;7.32;;
66523;SDS011;53350;52.210;5.160;2023-11-21T00:59:14;27.60;;;8.07;;
66523;SDS011;53350;52.210;5.160;2023-11-21T01:01:40;53.50;;;8.70;;
66523;SDS011;53350;52.210;5.160;2023-11-21T01:04:07;26.55;;;8.18;;
66523;SDS011;53350;52.210;5.160;2023-11-21T01:06:33;33.15;;;9.13;;
66523;SDS011;53350;52.210;5.160;2023-11-21T01:09:00;22.83;;;7.75;;
66523;SDS011;53350;52.210;5.160;2023-11-21T01:11:26;19.00;;;7.93;;
66523;SDS011;53350;52.210;5.160;2023-11-21T01:13:53;18.23;;;8.30;;
66523;SDS011;53350;52.210;5.160;2023-11-21T01:16:20;19.13;;;8.52;;
66523;SDS011;53350;52.210;5.160;2023-11-21T01:18:47;13.05;;;7.95;;
66523;SDS011;53350;52.210;5.160;2023-11-21T01:21:13;14.68;;;8.00;;
66523;SDS011;53350;52.210;5.160;2023-11-21T01:23:40;15.82;;;8.18;;
66523;SDS011;53350;52.210;5.160;2023-11-21T01:26:06;14.25;;;7.30;;
66523;SDS011;53350;52.210;5.160;2023-11-21T01:28:33;14.30;;;7.53;;
66523;SDS011;53350;52.210;5.160;2023-11-21T01:30:59;14.93;;;7.53;;
66523;SDS011;53350;52.210;5.160;2023-11-21T01:33:27;17.10;;;8.05;;
66523;SDS011;53350;52.210;5.160;2023-11-21T01:35:54;12.05;;;8.00;;
66523;SDS011;53350;52.210;5.160;2023-11-21T01:38:20;15.52;;;7.72;;
66523;SDS011;53350;52.210;5.160;2023-11-21T01:40:47;14.60;;;7.68;;
66523;SDS011;53350;52.210;5.160;2023-11-21T01:43:14;15.00;;;8.10;;
66523;SDS011;53350;52.210;5.160;2023-11-21T01:45:40;14.43;;;7.85;;
66523;SDS011;53350;52.210;5.160;2023-11-21T01:48:07;14.20;;;7.63;;
66523;SDS011;53350;52.210;5.160;2023-11-21T01:50:35;13.60;;;7.85;;
66523;SDS011;53350;52.210;5.160;2023-11-21T01:53:02;15.10;;;8.10;;
66523;SDS011;53350;52.210;5.160;2023-11-21T01:55:29;15.30;;;7.03;;
66523;SDS011;53350;52.210;5.160;2023-11-21T01:57:56;14.70;;;7.97;;
66523;SDS011;53350;52.210;5.160;2023-11-21T02:00:23;13.18;;;7.55;;
66523;SDS011;53350;52.210;5.160;2023-11-21T02:02:50;14.57;;;7.90;;
66523;SDS011;53350;52.210;5.160;2023-11-21T02:05:17;12.32;;;7.43;;
66523;SDS011;53350;52.210;5.160;2023-11-21T02:07:46;13.00;;;6.72;;
66523;SDS011;53350;52.210;5.160;2023-11-21T02:10:13;13.73;;;7.78;;
66523;SDS011;53350;52.210;5.160;2023-11-21T02:12:40;13.37;;;7.27;;
66523;SDS011;53350;52.210;5.160;2023-11-21T02:15:07;13.15;;;7.45;;
66523;SDS011;53350;52.210;5.160;2023-11-21T02:17:40;17.17;;;7.88;;
66523;SDS011;53350;52.210;5.160;2023-11-21T02:20:07;11.95;;;7.18;;
66523;SDS011;53350;52.210;5.160;2023-11-21T02:22:37;15.45;;;7.65;;
66523;SDS011;53350;52.210;5.160;2023-11-21T02:25:08;12.80;;;7.53;;
66523;SDS011;53350;52.210;5.160;2023-11-21T02:27:35;19.55;;;7.78;;
66523;SDS011;53350;52.210;5.160;2023-11-21T02:30:01;16.13;;;7.63;;
66523;SDS011;53350;52.210;5.160;2023-11-21T02:32:29;18.30;;;7.78;;
66523;SDS011;53350;52.210;5.160;2023-11-21T02:34:56;14.85;;;7.38;;
66523;SDS011;53350;52.210;5.160;2023-11-21T02:37:26;16.60;;;7.82;;
66523;SDS011;53350;52.210;5.160;2023-11-21T02:39:52;15.48;;;7.40;;
66523;SDS011;53350;52.210;5.160;2023-11-21T02:42:20;17.08;;;7.65;;
66523;SDS011;53350;52.210;5.160;2023-11-21T02:44:46;16.88;;;7.75;;
66523;SDS011;53350;52.210;5.160;2023-11-21T02:47:13;14.68;;;7.53;;
66523;SDS011;53350;52.210;5.160;2023-11-21T02:49:39;16.38;;;7.95;;
66523;SDS011;53350;52.210;5.160;2023-11-21T02:52:05;19.00;;;7.95;;
66523;SDS011;53350;52.210;5.160;2023-11-21T02:54:32;19.48;;;8.18;;
66523;SDS011;53350;52.210;5.160;2023-11-21T02:57:01;23.85;;;8.07;;
66523;SDS011;53350;52.210;5.160;2023-11-21T02:59:29;16.42;;;7.70;;
66523;SDS011;53350;52.210;5.160;2023-11-21T03:01:56;19.50;;;8.32;;
66523;SDS011;53350;52.210;5.160;2023-11-21T03:04:23;19.85;;;7.43;;
66523;SDS011;53350;52.210;5.160;2023-11-21T03:06:49;14.48;;;7.80;;
66523;SDS011;53350;52.210;5.160;2023-11-21T03:09:16;18.85;;;7.95;;
66523;SDS011;53350;52.210;5.160;2023-11-21T03:11:42;19.83;;;8.70;;
66523;SDS011;53350;52.210;5.160;2023-11-21T03:14:08;17.55;;;7.68;;
66523;SDS011;53350;52.210;5.160;2023-11-21T03:16:37;16.35;;;7.45;;
66523;SDS011;53350;52.210;5.160;2023-11-21T03:21:31;21.50;;;6.93;;
66523;SDS011;53350;52.210;5.160;2023-11-21T03:23:57;14.98;;;7.05;;
66523;SDS011;53350;52.210;5.160;2023-11-21T03:26:24;17.02;;;6.85;;
66523;SDS011;53350;52.210;5.160;2023-11-21T03:28:51;13.05;;;6.55;;
66523;SDS011;53350;52.210;5.160;2023-11-21T03:31:18;15.50;;;7.47;;
66523;SDS011;53350;52.210;5.160;2023-11-21T03:33:46;19.98;;;7.35;;
66523;SDS011;53350;52.210;5.160;2023-11-21T03:36:13;14.85;;;7.05;;
66523;SDS011;53350;52.210;5.160;2023-11-21T03:38:41;17.92;;;7.47;;
66523;SDS011;53350;52.210;5.160;2023-11-21T03:41:08;21.40;;;8.98;;
66523;SDS011;53350;52.210;5.160;2023-11-21T03:43:35;16.30;;;7.45;;
66523;SDS011;53350;52.210;5.160;2023-11-21T03:46:02;22.25;;;7.55;;
66523;SDS011;53350;52.210;5.160;2023-11-21T03:48:28;21.13;;;8.05;;
66523;SDS011;53350;52.210;5.160;2023-11-21T03:50:56;20.55;;;7.63;;
66523;SDS011;53350;52.210;5.160;2023-11-21T03:53:22;18.35;;;7.65;;
66523;SDS011;53350;52.210;5.160;2023-11-21T03:55:49;17.20;;;7.70;;
66523;SDS011;53350;52.210;5.160;2023-11-21T03:58:15;17.35;;;7.00;;
66523;SDS011;53350;52.210;5.160;2023-11-21T04:00:42;15.23;;;7.22;;
66523;SDS011;53350;52.210;5.160;2023-11-21T04:03:08;15.40;;;7.28;;
66523;SDS011;53350;52.210;5.160;2023-11-21T04:05:34;16.48;;;7.68;;
66523;SDS011;53350;52.210;5.160;2023-11-21T04:08:02;17.75;;;7.20;;
66523;SDS011;53350;52.210;5.160;2023-11-21T04:10:29;17.63;;;7.75;;
66523;SDS011;53350;52.210;5.160;2023-11-21T04:12:55;18.83;;;7.75;;
66523;SDS011;53350;52.210;5.160;2023-11-21T04:15:22;21.77;;;7.22;;
66523;SDS011;53350;52.210;5.160;2023-11-21T04:17:48;19.13;;;7.45;;
66523;SDS011;53350;52.210;5.160;2023-11-21T04:20:15;17.80;;;7.47;;
66523;SDS011;53350;52.210;5.160;2023-11-21T04:22:42;13.63;;;7.75;;
66523;SDS011;53350;52.210;5.160;2023-11-21T04:25:12;17.75;;;7.50;;
66523;SDS011;53350;52.210;5.160;2023-11-21T04:27:39;14.00;;;7.10;;
66523;SDS011;53350;52.210;5.160;2023-11-21T04:30:08;16.52;;;7.47;;
66523;SDS011;53350;52.210;5.160;2023-11-21T04:32:36;14.48;;;7.57;;
66523;SDS011;53350;52.210;5.160;2023-11-21T04:35:02;19.02;;;7.35;;
66523;SDS011;53350;52.210;5.160;2023-11-21T04:37:29;20.10;;;8.93;;
66523;SDS011;53350;52.210;5.160;2023-11-21T04:39:56;16.98;;;8.00;;
66523;SDS011;53350;52.210;5.160;2023-11-21T04:42:23;15.90;;;7.13;;
66523;SDS011;53350;52.210;5.160;2023-11-21T04:44:50;14.18;;;7.32;;
66523;SDS011;53350;52.210;5.160;2023-11-21T04:47:17;16.00;;;8.25;;
66523;SDS011;53350;52.210;5.160;2023-11-21T04:49:45;18.50;;;7.90;;
66523;SDS011;53350;52.210;5.160;2023-11-21T04:52:13;18.08;;;9.55;;
66523;SDS011;53350;52.210;5.160;2023-11-21T04:54:39;20.00;;;8.75;;
66523;SDS011;53350;52.210;5.160;2023-11-21T04:57:05;22.25;;;8.85;;
66523;SDS011;53350;52.210;5.160;2023-11-21T04:59:33;21.60;;;8.75;;
66523;SDS011;53350;52.210;5.160;2023-11-21T05:02:00;22.83;;;9.43;;
66523;SDS011;53350;52.210;5.160;2023-11-21T05:04:26;16.50;;;8.38;;
66523;SDS011;53350;52.210;5.160;2023-11-21T05:06:53;19.58;;;9.00;;
66523;SDS011;53350;52.210;5.160;2023-11-21T05:09:19;16.08;;;7.82;;
66523;SDS011;53350;52.210;5.160;2023-11-21T05:11:47;17.55;;;7.88;;
66523;SDS011;53350;52.210;5.160;2023-11-21T05:14:13;20.08;;;8.40;;
66523;SDS011;53350;52.210;5.160;2023-11-21T05:16:41;19.50;;;8.00;;
66523;SDS011;53350;52.210;5.160;2023-11-21T05:19:07;16.50;;;7.80;;
66523;SDS011;53350;52.210;5.160;2023-11-21T05:21:34;21.58;;;8.10;;
66523;SDS011;53350;52.210;5.160;2023-11-21T05:24:01;19.65;;;7.35;;
66523;SDS011;53350;52.210;5.160;2023-11-21T05:26:27;16.42;;;7.70;;
66523;SDS011;53350;52.210;5.160;2023-11-21T05:28:54;16.58;;;8.52;;
66523;SDS011;53350;52.210;5.160;2023-11-21T05:31:20;19.92;;;7.65;;
66523;SDS011;53350;52.210;5.160;2023-11-21T05:33:48;16.98;;;7.25;;
66523;SDS011;53350;52.210;5.160;2023-11-21T05:36:14;14.60;;;7.70;;
66523;SDS011;53350;52.210;5.160;2023-11-21T05:38:41;19.73;;;8.02;;
66523;SDS011;53350;52.210;5.160;2023-11-21T05:41:07;16.85;;;7.82;;
66523;SDS011;53350;52.210;5.160;2023-11-21T05:43:36;15.00;;;7.22;;
66523;SDS011;53350;52.210;5.160;2023-11-21T05:46:02;15.93;;;7.72;;
66523;SDS011;53350;52.210;5.160;2023-11-21T05:48:29;16.35;;;7.25;;
66523;SDS011;53350;52.210;5.160;2023-11-21T05:50:57;18.42;;;8.38;;
66523;SDS011;53350;52.210;5.160;2023-11-21T05:53:24;20.52;;;7.38;;
66523;SDS011;53350;52.210;5.160;2023-11-21T05:55:50;16.58;;;7.63;;
66523;SDS011;53350;52.210;5.160;2023-11-21T05:58:16;17.77;;;8.00;;
66523;SDS011;53350;52.210;5.160;2023-11-21T06:00:43;17.48;;;7.38;;
66523;SDS011;53350;52.210;5.160;2023-11-21T06:03:09;17.48;;;8.45;;
66523;SDS011;53350;52.210;5.160;2023-11-21T06:05:36;20.10;;;8.70;;
66523;SDS011;53350;52.210;5.160;2023-11-21T06:08:05;18.60;;;8.25;;
66523;SDS011;53350;52.210;5.160;2023-11-21T06:10:32;16.88;;;8.10;;
66523;SDS011;53350;52.210;5.160;2023-11-21T06:12:59;16.00;;;7.40;;
66523;SDS011;53350;52.210;5.160;2023-11-21T06:15:25;12.68;;;7.30;;
66523;SDS011;53350;52.210;5.160;2023-11-21T06:17:52;13.80;;;6.82;;
66523;SDS011;53350;52.210;5.160;2023-11-21T06:20:18;15.85;;;7.78;;
66523;SDS011;53350;52.210;5.160;2023-11-21T06:22:46;17.45;;;8.07;;
66523;SDS011;53350;52.210;5.160;2023-11-21T06:25:14;13.15;;;7.60;;
66523;SDS011;53350;52.210;5.160;2023-11-21T06:27:41;16.85;;;7.45;;
66523;SDS011;53350;52.210;5.160;2023-11-21T06:30:09;17.10;;;7.43;;
66523;SDS011;53350;52.210;5.160;2023-11-21T06:32:37;15.87;;;7.83;;
66523;SDS011;53350;52.210;5.160;2023-11-21T06:35:05;22.77;;;9.20;;
66523;SDS011;53350;52.210;5.160;2023-11-21T06:37:33;19.63;;;9.07;;
66523;SDS011;53350;52.210;5.160;2023-11-21T06:40:00;18.38;;;7.95;;
66523;SDS011;53350;52.210;5.160;2023-11-21T06:44:56;16.95;;;7.35;;
66523;SDS011;53350;52.210;5.160;2023-11-21T06:47:23;13.43;;;5.43;;
66523;SDS011;53350;52.210;5.160;2023-11-21T06:49:50;15.57;;;6.03;;
66523;SDS011;53350;52.210;5.160;2023-11-21T06:52:17;16.63;;;5.97;;
66523;SDS011;53350;52.210;5.160;2023-11-21T06:54:44;14.63;;;6.70;;
66523;SDS011;53350;52.210;5.160;2023-11-21T06:57:12;11.90;;;5.68;;
66523;SDS011;53350;52.210;5.160;2023-11-21T06:59:40;19.52;;;5.90;;
66523;SDS011;53350;52.210;5.160;2023-11-21T07:02:06;13.68;;;5.85;;
66523;SDS011;53350;52.210;5.160;2023-11-21T07:04:34;12.48;;;5.43;;
66523;SDS011;53350;52.210;5.160;2023-11-21T07:07:01;15.93;;;5.28;;
66523;SDS011;53350;52.210;5.160;2023-11-21T07:09:28;11.93;;;5.70;;
66523;SDS011;53350;52.210;5.160;2023-11-21T07:11:56;12.40;;;5.00;;
66523;SDS011;53350;52.210;5.160;2023-11-21T07:14:22;13.23;;;5.07;;
66523;SDS011;53350;52.210;5.160;2023-11-21T07:16:50;16.80;;;5.65;;
66523;SDS011;53350;52.210;5.160;2023-11-21T07:19:17;14.07;;;4.90;;
66523;SDS011;53350;52.210;5.160;2023-11-21T07:21:44;10.00;;;5.15;;
66523;SDS011;53350;52.210;5.160;2023-11-21T07:24:11;11.70;;;4.90;;
66523;SDS011;53350;52.210;5.160;2023-11-21T07:26:37;13.30;;;4.78;;
66523;SDS011;53350;52.210;5.160;2023-11-21T07:29:04;13.57;;;6.03;;
66523;SDS011;53350;52.210;5.160;2023-11-21T07:31:31;14.73;;;5.55;;
66523;SDS011;53350;52.210;5.160;2023-11-21T07:34:00;13.10;;;4.88;;
66523;SDS011;53350;52.210;5.160;2023-11-21T07:36:27;20.30;;;5.75;;
66523;SDS011;53350;52.210;5.160;2023-11-21T07:38:53;12.32;;;4.80;;
66523;SDS011;53350;52.210;5.160;2023-11-21T07:41:20;12.77;;;5.28;;
66523;SDS011;53350;52.210;5.160;2023-11-21T07:43:47;13.52;;;5.07;;
66523;SDS011;53350;52.210;5.160;2023-11-21T07:46:14;12.45;;;5.45;;
66523;SDS011;53350;52.210;5.160;2023-11-21T07:48:40;12.38;;;5.60;;
66523;SDS011;53350;52.210;5.160;2023-11-21T07:53:38;10.10;;;4.95;;
66523;SDS011;53350;52.210;5.160;2023-11-21T07:56:05;15.73;;;6.25;;
66523;SDS011;53350;52.210;5.160;2023-11-21T07:58:33;16.08;;;6.55;;
66523;SDS011;53350;52.210;5.160;2023-11-21T08:01:00;18.83;;;6.75;;
66523;SDS011;53350;52.210;5.160;2023-11-21T08:03:27;16.75;;;7.20;;
66523;SDS011;53350;52.210;5.160;2023-11-21T08:05:55;15.90;;;6.70;;
66523;SDS011;53350;52.210;5.160;2023-11-21T08:08:23;18.23;;;7.10;;
66523;SDS011;53350;52.210;5.160;2023-11-21T08:10:49;15.13;;;6.25;;
66523;SDS011;53350;52.210;5.160;2023-11-21T08:13:21;14.98;;;6.13;;
66523;SDS011;53350;52.210;5.160;2023-11-21T08:15:47;18.25;;;7.80;;
66523;SDS011;53350;52.210;5.160;2023-11-21T08:18:14;15.98;;;7.53;;
66523;SDS011;53350;52.210;5.160;2023-11-21T08:20:41;18.42;;;7.80;;
66523;SDS011;53350;52.210;5.160;2023-11-21T08:23:08;17.65;;;7.22;;
66523;SDS011;53350;52.210;5.160;2023-11-21T08:25:36;15.25;;;7.70;;
66523;SDS011;53350;52.210;5.160;2023-11-21T08:28:02;15.85;;;8.70;;
66523;SDS011;53350;52.210;5.160;2023-11-21T08:30:30;15.60;;;7.78;;
66523;SDS011;53350;52.210;5.160;2023-11-21T08:32:57;15.63;;;7.28;;
66523;SDS011;53350;52.210;5.160;2023-11-21T08:35:23;15.27;;;7.25;;
66523;SDS011;53350;52.210;5.160;2023-11-21T08:37:50;14.73;;;6.30;;
66523;SDS011;53350;52.210;5.160;2023-11-21T08:40:17;13.63;;;6.90;;
66523;SDS011;53350;52.210;5.160;2023-11-21T08:42:45;12.13;;;6.70;;
66523;SDS011;53350;52.210;5.160;2023-11-21T08:47:39;10.75;;;6.00;;
66523;SDS011;53350;52.210;5.160;2023-11-21T08:50:06;12.60;;;5.53;;
66523;SDS011;53350;52.210;5.160;2023-11-21T08:52:33;11.30;;;5.85;;
66523;SDS011;53350;52.210;5.160;2023-11-21T08:55:02;9.75;;;5.70;;
66523;SDS011;53350;52.210;5.160;2023-11-21T08:57:32;12.27;;;6.20;;
66523;SDS011;53350;52.210;5.160;2023-11-21T09:00:00;10.95;;;5.10;;
66523;SDS011;53350;52.210;5.160;2023-11-21T09:02:27;10.90;;;4.68;;
66523;SDS011;53350;52.210;5.160;2023-11-21T09:04:54;10.90;;;4.88;;
66523;SDS011;53350;52.210;5.160;2023-11-21T09:07:20;11.15;;;5.20;;
66523;SDS011;53350;52.210;5.160;2023-11-21T09:09:46;11.68;;;5.25;;
66523;SDS011;53350;52.210;5.160;2023-11-21T09:12:13;11.10;;;4.35;;
66523;SDS011;53350;52.210;5.160;2023-11-21T09:14:40;10.32;;;4.85;;
66523;SDS011;53350;52.210;5.160;2023-11-21T09:17:09;8.43;;;4.05;;
66523;SDS011;53350;52.210;5.160;2023-11-21T09:19:36;10.25;;;4.65;;
66523;SDS011;53350;52.210;5.160;2023-11-21T09:22:03;9.07;;;4.38;;
66523;SDS011;53350;52.210;5.160;2023-11-21T09:24:30;8.05;;;4.07;;
66523;SDS011;53350;52.210;5.160;2023-11-21T09:26:56;7.43;;;3.85;;
66523;SDS011;53350;52.210;5.160;2023-11-21T09:29:23;8.02;;;3.72;;
66523;SDS011;53350;52.210;5.160;2023-11-21T09:31:49;7.32;;;3.70;;
66523;SDS011;53350;52.210;5.160;2023-11-21T09:34:17;8.95;;;3.90;;
66523;SDS011;53350;52.210;5.160;2023-11-21T09:36:45;7.80;;;3.75;;
66523;SDS011;53350;52.210;5.160;2023-11-21T09:39:11;9.32;;;4.55;;
66523;SDS011;53350;52.210;5.160;2023-11-21T09:41:40;8.45;;;4.47;;
66523;SDS011;53350;52.210;5.160;2023-11-21T09:44:11;7.25;;;3.70;;
66523;SDS011;53350;52.210;5.160;2023-11-21T09:46:40;9.32;;;4.00;;
66523;SDS011;53350;52.210;5.160;2023-11-21T09:49:08;9.85;;;4.22;;
66523;SDS011;53350;52.210;5.160;2023-11-21T09:51:38;9.10;;;4.22;;
66523;SDS011;53350;52.210;5.160;2023-11-21T09:56:34;7.47;;;3.10;;
66523;SDS011;53350;52.210;5.160;2023-11-21T09:59:01;8.02;;;3.88;;
66523;SDS011;53350;52.210;5.160;2023-11-21T10:01:31;9.55;;;4.38;;
66523;SDS011;53350;52.210;5.160;2023-11-21T10:03:58;7.45;;;3.75;;
66523;SDS011;53350;52.210;5.160;2023-11-21T10:06:25;7.20;;;3.67;;
66523;SDS011;53350;52.210;5.160;2023-11-21T10:08:54;7.32;;;3.80;;
66523;SDS011;53350;52.210;5.160;2023-11-21T10:11:23;8.30;;;3.88;;
66523;SDS011;53350;52.210;5.160;2023-11-21T10:13:51;23.17;;;4.22;;
66523;SDS011;53350;52.210;5.160;2023-11-21T10:16:22;8.43;;;3.78;;
66523;SDS011;53350;52.210;5.160;2023-11-21T10:18:52;10.07;;;4.15;;
66523;SDS011;53350;52.210;5.160;2023-11-21T10:21:20;10.25;;;4.53;;
66523;SDS011;53350;52.210;5.160;2023-11-21T10:23:47;11.40;;;3.90;;
66523;SDS011;53350;52.210;5.160;2023-11-21T10:26:15;10.88;;;4.90;;
66523;SDS011;53350;52.210;5.160;2023-11-21T10:28:44;10.40;;;4.60;;
66523;SDS011;53350;52.210;5.160;2023-11-21T10:31:21;7.68;;;4.35;;
66523;SDS011;53350;52.210;5.160;2023-11-21T10:33:49;10.40;;;5.22;;
66523;SDS011;53350;52.210;5.160;2023-11-21T10:36:22;8.82;;;4.78;;
66523;SDS011;53350;52.210;5.160;2023-11-21T10:38:51;11.25;;;6.45;;
66523;SDS011;53350;52.210;5.160;2023-11-21T10:41:20;10.70;;;5.65;;
66523;SDS011;53350;52.210;5.160;2023-11-21T10:43:47;14.48;;;6.90;;
66523;SDS011;53350;52.210;5.160;2023-11-21T10:46:13;12.27;;;6.30;;
66523;SDS011;53350;52.210;5.160;2023-11-21T10:48:41;13.07;;;6.35;;
66523;SDS011;53350;52.210;5.160;2023-11-21T10:51:08;11.05;;;5.97;;
66523;SDS011;53350;52.210;5.160;2023-11-21T10:53:38;10.68;;;6.03;;
66523;SDS011;53350;52.210;5.160;2023-11-21T10:56:06;13.95;;;6.97;;
66523;SDS011;53350;52.210;5.160;2023-11-21T10:58:36;12.52;;;7.25;;
66523;SDS011;53350;52.210;5.160;2023-11-21T11:01:06;14.10;;;7.38;;
66523;SDS011;53350;52.210;5.160;2023-11-21T11:03:33;16.05;;;7.32;;
66523;SDS011;53350;52.210;5.160;2023-11-21T11:06:01;14.38;;;6.35;;
66523;SDS011;53350;52.210;5.160;2023-11-21T11:08:29;16.03;;;8.53;;
66523;SDS011;53350;52.210;5.160;2023-11-21T11:10:55;14.82;;;7.85;;
66523;SDS011;53350;52.210;5.160;2023-11-21T11:13:23;16.33;;;7.95;;
66523;SDS011;53350;52.210;5.160;2023-11-21T11:15:52;16.85;;;8.45;;
66523;SDS011;53350;52.210;5.160;2023-11-21T11:18:25;20.35;;;9.07;;
66523;SDS011;53350;52.210;5.160;2023-11-21T11:20:52;19.58;;;9.27;;
66523;SDS011;53350;52.210;5.160;2023-11-21T11:23:28;18.83;;;9.73;;
66523;SDS011;53350;52.210;5.160;2023-11-21T11:26:07;21.73;;;10.52;;
66523;SDS011;53350;52.210;5.160;2023-11-21T11:28:42;14.30;;;8.00;;
66523;SDS011;53350;52.210;5.160;2023-11-21T11:31:18;20.65;;;10.02;;
66523;SDS011;53350;52.210;5.160;2023-11-21T11:33:54;20.17;;;10.07;;
66523;SDS011;53350;52.210;5.160;2023-11-21T11:36:25;20.98;;;11.60;;
66523;SDS011;53350;52.210;5.160;2023-11-21T11:38:56;15.05;;;8.73;;
66523;SDS011;53350;52.210;5.160;2023-11-21T11:41:25;16.08;;;9.00;;
66523;SDS011;53350;52.210;5.160;2023-11-21T11:43:54;12.73;;;6.28;;
66523;SDS011;53350;52.210;5.160;2023-11-21T11:46:22;17.20;;;8.07;;
66523;SDS011;53350;52.210;5.160;2023-11-21T11:49:07;15.68;;;7.85;;
66523;SDS011;53350;52.210;5.160;2023-11-21T11:51:34;12.38;;;6.82;;
66523;SDS011;53350;52.210;5.160;2023-11-21T11:54:01;13.27;;;6.70;;
66523;SDS011;53350;52.210;5.160;2023-11-21T11:56:28;9.70;;;5.32;;
66523;SDS011;53350;52.210;5.160;2023-11-21T11:58:59;10.30;;;5.75;;
66523;SDS011;53350;52.210;5.160;2023-11-21T12:01:29;10.23;;;5.88;;
66523;SDS011;53350;52.210;5.160;2023-11-21T12:06:50;9.15;;;5.30;;
66523;SDS011;53350;52.210;5.160;2023-11-21T12:11:44;9.38;;;4.47;;
66523;SDS011;53350;52.210;5.160;2023-11-21T12:14:12;9.70;;;5.15;;
66523;SDS011;53350;52.210;5.160;2023-11-21T12:16:40;11.63;;;6.17;;
66523;SDS011;53350;52.210;5.160;2023-11-21T12:19:07;8.38;;;4.05;;
66523;SDS011;53350;52.210;5.160;2023-11-21T12:21:34;12.18;;;6.18;;
66523;SDS011;53350;52.210;5.160;2023-11-21T12:24:02;11.85;;;6.57;;
66523;SDS011;53350;52.210;5.160;2023-11-21T12:26:29;10.82;;;5.82;;
66523;SDS011;53350;52.210;5.160;2023-11-21T12:28:56;12.90;;;6.88;;
66523;SDS011;53350;52.210;5.160;2023-11-21T12:31:22;13.85;;;7.53;;
66523;SDS011;53350;52.210;5.160;2023-11-21T12:33:50;12.40;;;6.93;;
66523;SDS011;53350;52.210;5.160;2023-11-21T12:36:17;11.05;;;6.43;;
66523;SDS011;53350;52.210;5.160;2023-11-21T12:38:44;14.48;;;7.93;;
66523;SDS011;53350;52.210;5.160;2023-11-21T12:41:10;13.88;;;7.90;;
66523;SDS011;53350;52.210;5.160;2023-11-21T12:43:37;13.98;;;7.97;;
66523;SDS011;53350;52.210;5.160;2023-11-21T12:46:04;13.63;;;7.97;;
66523;SDS011;53350;52.210;5.160;2023-11-21T12:48:32;15.50;;;7.97;;
66523;SDS011;53350;52.210;5.160;2023-11-21T12:50:59;16.67;;;8.35;;
66523;SDS011;53350;52.210;5.160;2023-11-21T12:53:27;18.35;;;9.30;;
66523;SDS011;53350;52.210;5.160;2023-11-21T12:56:02;17.88;;;8.98;;
66523;SDS011;53350;52.210;5.160;2023-11-21T12:58:28;18.13;;;8.68;;
66523;SDS011;53350;52.210;5.160;2023-11-21T13:00:55;20.55;;;9.18;;
66523;SDS011;53350;52.210;5.160;2023-11-21T13:03:25;16.77;;;8.85;;
66523;SDS011;53350;52.210;5.160;2023-11-21T13:05:52;14.75;;;8.05;;
66523;SDS011;53350;52.210;5.160;2023-11-21T13:08:23;19.42;;;10.38;;
66523;SDS011;53350;52.210;5.160;2023-11-21T13:10:51;22.58;;;11.68;;
66523;SDS011;53350;52.210;5.160;2023-11-21T13:13:20;20.70;;;12.07;;
66523;SDS011;53350;52.210;5.160;2023-11-21T13:15:47;21.60;;;12.35;;
66523;SDS011;53350;52.210;5.160;2023-11-21T13:18:15;20.25;;;10.55;;
66523;SDS011;53350;52.210;5.160;2023-11-21T13:20:42;23.67;;;12.25;;
66523;SDS011;53350;52.210;5.160;2023-11-21T13:23:09;27.00;;;11.95;;
66523;SDS011;53350;52.210;5.160;2023-11-21T13:25:38;20.30;;;11.90;;
66523;SDS011;53350;52.210;5.160;2023-11-21T13:28:06;22.58;;;11.75;;
66523;SDS011;53350;52.210;5.160;2023-11-21T13:30:34;16.95;;;9.30;;
66523;SDS011;53350;52.210;5.160;2023-11-21T13:33:02;18.65;;;10.30;;
66523;SDS011;53350;52.210;5.160;2023-11-21T13:35:31;19.30;;;11.13;;
66523;SDS011;53350;52.210;5.160;2023-11-21T13:38:03;20.50;;;10.90;;
66523;SDS011;53350;52.210;5.160;2023-11-21T13:40:31;17.73;;;10.77;;
66523;SDS011;53350;52.210;5.160;2023-11-21T13:43:06;20.63;;;10.82;;
66523;SDS011;53350;52.210;5.160;2023-11-21T13:45:34;19.33;;;10.27;;
66523;SDS011;53350;52.210;5.160;2023-11-21T13:48:01;16.33;;;9.60;;
66523;SDS011;53350;52.210;5.160;2023-11-21T13:50:30;19.88;;;11.13;;
66523;SDS011;53350;52.210;5.160;2023-11-21T13:52:58;16.98;;;8.98;;
66523;SDS011;53350;52.210;5.160;2023-11-21T13:55:29;15.50;;;8.15;;
66523;SDS011;53350;52.210;5.160;2023-11-21T13:57:55;13.95;;;8.18;;
66523;SDS011;53350;52.210;5.160;2023-11-21T14:00:23;13.30;;;8.18;;
66523;SDS011;53350;52.210;5.160;2023-11-21T14:03:10;14.30;;;8.20;;
66523;SDS011;53350;52.210;5.160;2023-11-21T14:05:43;12.88;;;8.00;;
66523;SDS011;53350;52.210;5.160;2023-11-21T14:08:12;16.05;;;9.95;;
66523;SDS011;53350;52.210;5.160;2023-11-21T14:10:41;15.70;;;10.00;;
66523;SDS011;53350;52.210;5.160;2023-11-21T14:13:09;16.75;;;9.70;;
66523;SDS011;53350;52.210;5.160;2023-11-21T14:15:38;14.45;;;9.63;;
66523;SDS011;53350;52.210;5.160;2023-11-21T14:18:08;15.18;;;9.23;;
66523;SDS011;53350;52.210;5.160;2023-11-21T14:20:36;15.00;;;7.93;;
66523;SDS011;53350;52.210;5.160;2023-11-21T14:23:03;14.88;;;9.18;;
66523;SDS011;53350;52.210;5.160;2023-11-21T14:25:31;11.93;;;7.22;;
66523;SDS011;53350;52.210;5.160;2023-11-21T14:27:58;14.27;;;9.57;;
66523;SDS011;53350;52.210;5.160;2023-11-21T14:30:24;15.35;;;5.55;;
66523;SDS011;53350;52.210;5.160;2023-11-21T14:32:53;11.50;;;6.43;;
66523;SDS011;53350;52.210;5.160;2023-11-21T14:35:20;13.13;;;8.13;;
66523;SDS011;53350;52.210;5.160;2023-11-21T14:37:46;14.50;;;8.93;;
66523;SDS011;53350;52.210;5.160;2023-11-21T14:40:13;13.52;;;8.80;;
66523;SDS011;53350;52.210;5.160;2023-11-21T14:42:41;12.70;;;7.45;;
66523;SDS011;53350;52.210;5.160;2023-11-21T14:45:08;12.88;;;8.18;;
66523;SDS011;53350;52.210;5.160;2023-11-21T14:47:37;11.93;;;6.85;;
66523;SDS011;53350;52.210;5.160;2023-11-21T14:50:10;12.07;;;7.25;;
66523;SDS011;53350;52.210;5.160;2023-11-21T14:53:04;12.32;;;7.07;;
66523;SDS011;53350;52.210;5.160;2023-11-21T14:55:31;11.00;;;7.70;;